Aérodrome :
LOGIN :

S'inscrire | Disclaimer

   EN    FR    IT 

 










Légende :    VFR   VFR Marginal   IFR   IFR Intensif   IFR Très Intensif
Visi : 
Plafond : 
>= 8 km
>= 3000ft
5 à 8 km
1000 à 3000 ft
1500m à 5 km
500 à 1000 ft
800 à 1500m
200 à 500 ft
< 800m
< 200 ft
Symboles :   Orages  Brouillard  Fortes neiges  Fortes précipitations  Vent > 20 kt
SIGMETs :   Divers  Orages  Givrage  Turbulence  Onde Orograph.  Cendres Volcan.






- Altitude de l'aérodrome : 170 ft
- Code IATA : BGO


ENBR - Bergen , Flesland

DERNIER METAR :
  • 190120Z 32019G29KT 9999 VCSH FEW007 SCT036 BKN050 05/M01 Q1024 RMK WIND 1200FT 31034G50KT

METARs EXPIRÉS :
  • 190050Z 33019G30KT 9999 SHRA FEW005 SCT010 BKN040 05/M00 Q1023 RMK WIND 1200FT 32035KT
  • 190020Z 33019G30KT 9999 FEW011 BKN044 06/00 Q1022 RMK WIND 1200FT 32035G46KT
  • 182350Z 32021G34KT 9999 FEW029 BKN041 06/00 Q1021 RMK WIND 1200FT 32036G49KT
  • 182320Z 32021KT 9999 VCSH SCT020 BKN035 06/01 Q1020 RMK WIND 1200FT 31034G50KT
  • 182250Z 32022G36KT 9999 VCSH FEW010 SCT019TCU BKN038 06/01 Q1019 RMK WIND 1200FT 31033G50KT

TAF TAF ENBR
Valide du 19 à 00h jusqu'au 20 à 00h UTC


1900/1924 32020KT 9999 -SHRA FEW015TCU BKN030
TEMPO 1900/1902 31025G35KT
BECMG 1902/1904 32008KT
TEMPO 1909/1915 4000 SHRASN BKN014CB
BECMG 1921/1923 17010KT RA BKN012



MET'MAP, la Météo Aéronautique d'un coup d'oeil ! - Copyright ORBIFLY Décembre 2007 - Disclaimer

ORBIFLY MET'MAP TEAM :

Programmation & Développement : Alexandra Zaïnal
Sur une idée originale de : Baudouin d'Aumeries
Assistance à la programmation : Marc-Olivier Méhu
Soutien technique & logistique : Manuel Goepfert

Contact : metmap@orbifly.com




SOURCES & CREDITS :

   NOAA